Time;durP1;ratioP1;P1;durP2;ratioP2;P2;SDS_P1;SDS_P2;PMS_P1;PMS_P2;Temp;Humidity;BMP_temperature;BMP_pressure;BME280_temperature;BME280_humidity;BME280_pressure;Samples;Min_cycle;Max_cycle;Signal;HPM_P1;HPM_P2
2023/04/28 00:01:33;;;;;;;8.77;5.60;;;;;;;;;;5055400;28;20037;-52
2023/04/28 00:03:59;;;;;;;8.68;5.85;;;5.00;99.90;;;;;;5056958;28;20086;-51
2023/04/28 00:06:25;;;;;;;10.57;5.95;;;;;;;;;;5054782;28;20048;-50
2023/04/28 00:08:51;;;;;;;9.40;5.72;;;4.90;99.90;;;;;;5054188;28;20044;-51
2023/04/28 00:11:17;;;;;;;10.52;6.18;;;5.00;99.90;;;;;;5054944;28;20096;-50
2023/04/28 00:13:43;;;;;;;12.15;6.05;;;;;;;;;;5054727;28;20079;-51
2023/04/28 00:16:09;;;;;;;10.10;6.47;;;;;;;;;;5054304;28;20450;-49
2023/04/28 00:18:35;;;;;;;9.43;6.28;;;;;;;;;;5054858;28;20046;-51
2023/04/28 00:21:01;;;;;;;9.88;6.43;;;5.00;99.90;;;;;;5054824;28;20215;-52
2023/04/28 00:23:27;;;;;;;10.88;6.70;;;5.10;99.90;;;;;;5056346;28;20084;-51
2023/04/28 00:25:54;;;;;;;11.27;6.53;;;5.10;99.90;;;;;;5052936;28;20964;-50
2023/04/28 00:28:20;;;;;;;11.85;6.88;;;5.10;99.90;;;;;;5055542;28;20615;-52
2023/04/28 00:30:46;;;;;;;10.32;7.13;;;5.10;99.90;;;;;;5036828;28;20040;-52
2023/04/28 00:33:12;;;;;;;13.48;7.00;;;5.00;99.90;;;;;;5054912;28;20040;-50
2023/04/28 00:35:39;;;;;;;10.05;6.15;;;5.00;99.90;;;;;;5021156;28;20051;-51
2023/04/28 00:38:05;;;;;;;9.20;6.32;;;;;;;;;;5055496;28;20799;-50
2023/04/28 00:40:32;;;;;;;10.60;6.45;;;5.10;99.90;;;;;;5053690;28;20040;-53
2023/04/28 00:42:59;;;;;;;9.13;6.30;;;;;;;;;;5054594;28;20049;-50
2023/04/28 00:45:25;;;;;;;12.02;6.97;;;;;;;;;;5053241;28;20036;-50
2023/04/28 00:47:51;;;;;;;11.23;7.10;;;;;;;;;;5055892;28;20535;-49
2023/04/28 00:50:17;;;;;;;9.65;6.60;;;;;;;;;;5036705;28;20560;-49
2023/04/28 00:52:43;;;;;;;10.25;6.70;;;5.00;99.90;;;;;;5055804;28;20072;-49
2023/04/28 00:55:09;;;;;;;13.50;7.15;;;;;;;;;;5036317;28;20153;-51
2023/04/28 00:57:36;;;;;;;11.07;6.95;;;4.90;99.90;;;;;;5054678;28;20048;-48
2023/04/28 01:00:03;;;;;;;9.43;7.05;;;5.10;99.90;;;;;;5055337;28;20028;-48
2023/04/28 01:02:29;;;;;;;11.40;7.68;;;;;;;;;;5055604;28;20558;-47
2023/04/28 01:04:59;;;;;;;11.68;7.18;;;5.00;99.90;;;;;;5054839;28;20154;-47
2023/04/28 01:07:24;;;;;;;11.00;7.35;;;5.00;99.90;;;;;;5054521;28;20036;-47
2023/04/28 01:09:50;;;;;;;10.90;6.97;;;;;;;;;;5037367;28;20037;-52
2023/04/28 01:12:17;;;;;;;11.02;6.60;;;;;;;;;;5053558;28;20046;-49
2023/04/28 01:14:43;;;;;;;11.90;7.22;;;;;;;;;;5053764;28;20040;-51
2023/04/28 01:17:09;;;;;;;10.52;7.53;;;5.10;99.90;;;;;;5054891;28;20056;-49
2023/04/28 01:19:35;;;;;;;12.82;7.25;;;5.10;99.90;;;;;;5054453;28;20400;-48
2023/04/28 01:22:01;;;;;;;10.55;7.07;;;4.90;99.90;;;;;;5055244;28;20052;-50
2023/04/28 01:24:27;;;;;;;11.40;7.68;;;;;;;;;;5055291;28;20386;-52
2023/04/28 01:26:53;;;;;;;9.55;6.90;;;;;;;;;;5053850;28;20157;-47
2023/04/28 01:29:19;;;;;;;9.63;6.70;;;;;;;;;;5055733;28;20051;-47
2023/04/28 01:31:45;;;;;;;10.95;6.85;;;;;;;;;;5053128;28;20040;-47
2023/04/28 01:34:11;;;;;;;10.90;7.35;;;;;;;;;;5052463;28;20076;-48
2023/04/28 01:36:38;;;;;;;10.88;6.93;;;;;;;;;;5053278;28;20040;-49
2023/04/28 01:39:04;;;;;;;16.10;7.75;;;;;;;;;;5054339;28;20057;-48
2023/04/28 01:41:30;;;;;;;12.48;7.28;;;4.90;99.90;;;;;;5052607;28;20042;-47
2023/04/28 01:43:56;;;;;;;10.98;6.95;;;4.70;99.90;;;;;;5054362;28;20505;-47
2023/04/28 01:46:21;;;;;;;11.10;6.90;;;4.80;99.90;;;;;;5054526;28;20040;-48
2023/04/28 01:48:48;;;;;;;12.55;6.78;;;;;;;;;;5035818;28;20248;-52
2023/04/28 01:51:14;;;;;;;9.93;6.00;;;;;;;;;;5053638;28;20051;-53
2023/04/28 01:53:40;;;;;;;12.35;7.82;;;;;;;;;;5036025;28;20049;-51
2023/04/28 01:56:06;;;;;;;11.27;7.25;;;;;;;;;;5054397;28;20655;-49
2023/04/28 01:58:32;;;;;;;12.35;7.90;;;4.80;99.90;;;;;;5053688;28;20131;-48
2023/04/28 02:00:58;;;;;;;14.82;6.80;;;;;;;;;;5053480;28;20155;-50
2023/04/28 02:03:24;;;;;;;10.13;8.05;;;;;;;;;;5053286;28;20087;-50
2023/04/28 02:05:50;;;;;;;11.02;6.88;;;4.70;99.90;;;;;;5053654;28;20757;-47
2023/04/28 02:08:16;;;;;;;10.25;6.85;;;4.80;99.90;;;;;;5051614;28;20036;-47
2023/04/28 02:10:43;;;;;;;12.77;7.57;;;4.60;99.90;;;;;;5036168;28;20485;-49
2023/04/28 02:13:09;;;;;;;10.57;7.32;;;4.70;99.90;;;;;;5002070;28;20135;-51
2023/04/28 02:15:42;;;;;;;12.85;7.50;;;4.80;99.90;;;;;;5053087;28;20671;-50
2023/04/28 02:18:08;;;;;;;11.60;8.00;;;;;;;;;;5051807;28;20071;-49
2023/04/28 02:20:34;;;;;;;11.88;7.78;;;;;;;;;;5035872;28;20051;-51
2023/04/28 02:23:00;;;;;;;10.50;7.55;;;;;;;;;;5053214;28;20041;-52
2023/04/28 02:25:26;;;;;;;12.20;7.97;;;;;;;;;;5052964;28;20060;-52
2023/04/28 02:27:52;;;;;;;11.68;7.85;;;4.70;99.90;;;;;;5053354;28;20059;-49
2023/04/28 02:30:18;;;;;;;18.38;8.73;;;;;;;;;;5053976;28;20040;-51
2023/04/28 02:32:44;;;;;;;11.02;8.05;;;;;;;;;;5053729;28;20079;-50
2023/04/28 02:35:10;;;;;;;15.07;8.65;;;;;;;;;;5053755;28;20051;-49
2023/04/28 02:37:36;;;;;;;14.77;9.38;;;4.80;99.90;;;;;;5054250;28;20250;-51
2023/04/28 02:40:02;;;;;;;13.05;7.80;;;;;;;;;;5053966;28;20778;-48
2023/04/28 02:42:28;;;;;;;14.32;9.18;;;4.70;99.90;;;;;;5053634;28;20076;-47
2023/04/28 02:44:53;;;;;;;15.25;8.80;;;4.90;99.90;;;;;;5055214;28;20095;-48
2023/04/28 02:47:20;;;;;;;14.02;9.50;;;;;;;;;;5056819;28;20040;-51
2023/04/28 02:49:46;;;;;;;13.70;10.20;;;;;;;;;;5056442;28;20801;-51
2023/04/28 02:52:12;;;;;;;15.18;9.30;;;;;;;;;;5057899;28;20474;-51
2023/04/28 02:54:38;;;;;;;15.48;10.38;;;;;;;;;;5060106;28;20052;-52
2023/04/28 02:57:04;;;;;;;13.98;8.10;;;;;;;;;;5058174;28;20048;-49
2023/04/28 02:59:30;;;;;;;15.52;10.35;;;;;;;;;;5056887;28;20383;-48
2023/04/28 03:01:56;;;;;;;14.93;9.65;;;;;;;;;;5056640;28;20043;-51
2023/04/28 03:04:22;;;;;;;15.98;10.48;;;;;;;;;;5056653;28;20040;-51
2023/04/28 03:06:48;;;;;;;13.60;10.43;;;;;;;;;;5056349;28;20063;-49
2023/04/28 03:09:14;;;;;;;18.38;10.90;;;5.10;99.90;;;;;;5056518;28;20040;-49
2023/04/28 03:11:40;;;;;;;15.20;11.13;;;;;;;;;;5055888;28;20051;-48
2023/04/28 03:14:07;;;;;;;16.77;10.27;;;5.00;99.90;;;;;;5056207;28;20048;-48
2023/04/28 03:16:33;;;;;;;16.17;11.48;;;;;;;;;;5056086;28;20083;-50
2023/04/28 03:18:59;;;;;;;20.20;12.00;;;5.20;99.90;;;;;;5055824;28;20048;-47
2023/04/28 03:21:28;;;;;;;16.52;10.85;;;;;;;;;;5056454;28;20093;-51
2023/04/28 03:23:54;;;;;;;18.55;12.55;;;5.10;99.90;;;;;;5058329;28;20063;-48
2023/04/28 03:26:20;;;;;;;20.63;13.05;;;5.30;99.90;;;;;;5038164;28;20874;-47
2023/04/28 03:28:46;;;;;;;17.50;11.70;;;;;;;;;;5056039;28;20055;-49
2023/04/28 03:31:12;;;;;;;19.48;13.93;;;;;;;;;;5057106;28;20618;-47
2023/04/28 03:33:38;;;;;;;18.23;12.80;;;;;;;;;;5056643;28;20100;-48
2023/04/28 03:36:04;;;;;;;24.45;13.43;;;;;;;;;;5056434;28;20161;-48
2023/04/28 03:38:30;;;;;;;21.52;13.70;;;5.10;99.90;;;;;;5056080;28;20037;-48
2023/04/28 03:40:56;;;;;;;23.75;14.32;;;;;;;;;;5055300;28;20052;-47
2023/04/28 03:43:22;;;;;;;18.75;12.77;;;;;;;;;;5056390;28;20386;-47
2023/04/28 03:45:49;;;;;;;20.15;13.77;;;;;;;;;;5055483;28;20044;-48
2023/04/28 03:48:15;;;;;;;21.70;12.98;;;;;;;;;;5054658;28;20116;-46
2023/04/28 03:50:42;;;;;;;18.73;11.43;;;;;;;;;;5055866;28;20036;-50
2023/04/28 03:53:08;;;;;;;25.83;14.70;;;;;;;;;;5056498;28;20094;-47
2023/04/28 03:55:34;;;;;;;18.95;14.05;;;;;;;;;;5039234;28;20076;-49
2023/04/28 03:58:00;;;;;;;21.92;15.48;;;5.20;99.90;;;;;;5055138;28;20041;-49
2023/04/28 04:00:25;;;;;;;22.52;13.43;;;5.20;99.90;;;;;;5056017;28;20045;-48
2023/04/28 04:02:52;;;;;;;25.50;14.73;;;;;;;;;;5056699;28;20040;-48
2023/04/28 04:05:18;;;;;;;21.35;14.25;;;;;;;;;;5055318;28;20064;-52
2023/04/28 04:07:44;;;;;;;24.15;16.27;;;;;;;;;;5056092;28;20048;-47
2023/04/28 04:10:10;;;;;;;24.05;15.75;;;;;;;;;;5055688;28;20045;-46
2023/04/28 04:12:36;;;;;;;21.90;14.95;;;;;;;;;;5056256;28;20184;-49
2023/04/28 04:15:02;;;;;;;26.85;15.60;;;5.30;99.90;;;;;;5056345;28;20052;-48
2023/04/28 04:17:28;;;;;;;23.73;14.85;;;;;;;;;;5056453;28;20083;-49
2023/04/28 04:19:55;;;;;;;22.23;15.68;;;;;;;;;;5057233;28;20131;-48
2023/04/28 04:22:20;;;;;;;26.38;15.27;;;5.40;99.90;;;;;;5022159;28;20048;-52
2023/04/28 04:24:46;;;;;;;27.15;15.23;;;;;;;;;;5056674;28;20133;-49
2023/04/28 04:27:13;;;;;;;22.52;15.70;;;;;;;;;;5055779;28;20044;-52
2023/04/28 04:29:39;;;;;;;23.50;15.20;;;;;;;;;;5038154;28;20477;-48
2023/04/28 04:32:05;;;;;;;24.10;13.50;;;;;;;;;;5054843;28;20106;-49
2023/04/28 04:34:31;;;;;;;24.63;14.90;;;;;;;;;;5054584;28;20036;-47
2023/04/28 04:36:57;;;;;;;28.35;14.40;;;5.30;99.90;;;;;;5055902;28;20459;-48
2023/04/28 04:39:23;;;;;;;24.92;14.65;;;;;;;;;;5054031;28;20105;-51
2023/04/28 04:41:49;;;;;;;20.83;14.30;;;5.40;99.90;;;;;;5054394;28;20061;-50
2023/04/28 04:44:15;;;;;;;20.98;14.60;;;5.30;99.90;;;;;;5054964;28;20060;-51
2023/04/28 04:46:40;;;;;;;24.58;15.02;;;5.40;99.90;;;;;;5054730;28;20144;-49
2023/04/28 04:49:06;;;;;;;23.52;15.13;;;5.40;99.90;;;;;;5054507;28;20095;-49
2023/04/28 04:51:32;;;;;;;24.30;14.55;;;;;;;;;;5054516;28;20128;-49
2023/04/28 04:53:58;;;;;;;22.10;15.02;;;5.20;99.90;;;;;;5056227;28;20079;-52
2023/04/28 04:56:24;;;;;;;23.27;13.98;;;;;;;;;;5054404;28;20500;-51
2023/04/28 04:58:51;;;;;;;22.77;15.20;;;5.30;99.90;;;;;;5054403;28;20188;-51
2023/04/28 05:01:17;;;;;;;24.48;16.05;;;;;;;;;;5054104;28;20048;-51
2023/04/28 05:03:43;;;;;;;21.40;14.05;;;;;;;;;;5053682;28;20045;-50
2023/04/28 05:06:09;;;;;;;21.88;14.40;;;5.40;99.90;;;;;;5053233;28;20044;-49
2023/04/28 05:08:35;;;;;;;18.90;13.60;;;5.60;99.90;;;;;;5053112;28;20867;-53
2023/04/28 05:11:01;;;;;;;23.23;13.32;;;;;;;;;;5053035;28;20139;-52
2023/04/28 05:13:27;;;;;;;22.23;13.55;;;;;;;;;;5053982;28;20056;-52
2023/04/28 05:15:53;;;;;;;22.30;14.52;;;;;;;;;;5054446;28;20048;-51
2023/04/28 05:18:19;;;;;;;16.33;11.15;;;;;;;;;;5052297;28;20036;-50
2023/04/28 05:20:45;;;;;;;18.30;13.60;;;5.60;99.90;;;;;;5052245;28;20063;-52
2023/04/28 05:23:11;;;;;;;17.58;12.80;;;;;;;;;;5051592;28;20903;-50
2023/04/28 05:25:37;;;;;;;19.52;13.02;;;;;;;;;;5055768;28;20131;-48
2023/04/28 05:28:06;;;;;;;21.27;13.80;;;;;;;;;;5020426;28;20044;-52
2023/04/28 05:30:32;;;;;;;19.05;13.70;;;5.60;99.90;;;;;;5053021;28;20469;-49
2023/04/28 05:32:58;;;;;;;21.60;14.02;;;;;;;;;;5053795;28;20044;-52
2023/04/28 05:35:25;;;;;;;19.60;12.95;;;5.80;99.90;;;;;;5053737;28;20050;-53
2023/04/28 05:37:51;;;;;;;16.58;8.05;;;;;;;;;;5053289;28;20063;-51
2023/04/28 05:40:17;;;;;;;20.35;12.35;;;5.80;99.90;;;;;;5053219;28;20401;-52
2023/04/28 05:42:42;;;;;;;16.73;11.02;;;6.00;99.90;;;;;;5053381;28;20044;-48
2023/04/28 05:45:09;;;;;;;22.85;12.48;;;6.00;99.90;;;;;;5053669;28;20055;-54
2023/04/28 05:47:35;;;;;;;17.83;12.05;;;;;;;;;;5051959;28;20036;-53
2023/04/28 05:50:01;;;;;;;19.63;11.48;;;6.00;99.90;;;;;;5052754;28;20048;-52
2023/04/28 05:52:27;;;;;;;18.23;10.52;;;;;;;;;;5052275;28;20048;-52
2023/04/28 05:54:53;;;;;;;20.35;13.10;;;6.00;99.90;;;;;;5054767;28;20053;-51
2023/04/28 05:57:19;;;;;;;19.95;12.73;;;;;;;;;;5050599;28;20049;-51
2023/04/28 05:59:45;;;;;;;22.58;13.10;;;5.90;99.90;;;;;;5052315;28;20051;-51
2023/04/28 06:02:11;;;;;;;20.17;13.45;;;;;;;;;;5051737;28;23949;-49
2023/04/28 06:04:37;;;;;;;19.80;12.95;;;6.10;99.90;;;;;;5052244;28;20048;-51
2023/04/28 06:07:04;;;;;;;18.15;11.32;;;;;;;;;;5050765;28;20246;-52
2023/04/28 06:09:30;;;;;;;18.25;12.48;;;;;;;;;;5051488;28;20052;-52
2023/04/28 06:11:56;;;;;;;19.90;12.93;;;;;;;;;;5052647;28;20709;-52
2023/04/28 06:14:22;;;;;;;17.17;12.63;;;;;;;;;;5052560;28;20143;-54
2023/04/28 06:16:49;;;;;;;18.65;12.32;;;6.20;99.90;;;;;;5052267;28;20972;-51
2023/04/28 06:19:17;;;;;;;19.40;12.45;;;6.30;99.90;;;;;;5051715;28;20125;-53
2023/04/28 06:21:43;;;;;;;18.30;11.27;;;6.20;99.90;;;;;;5053225;28;20313;-51
2023/04/28 06:24:09;;;;;;;16.95;11.82;;;6.50;99.90;;;;;;5036704;28;20053;-53
2023/04/28 06:26:35;;;;;;;15.63;11.30;;;6.50;99.90;;;;;;5054885;28;20382;-52
2023/04/28 06:29:01;;;;;;;18.58;11.73;;;6.70;99.90;;;;;;5052941;28;20386;-51
2023/04/28 06:31:26;;;;;;;16.08;11.63;;;6.70;99.90;;;;;;5053228;28;20048;-52
2023/04/28 06:33:52;;;;;;;20.92;10.35;;;6.80;99.90;;;;;;5053512;28;20045;-52
2023/04/28 06:36:18;;;;;;;16.48;10.77;;;;;;;;;;5052352;28;20044;-52
2023/04/28 06:38:44;;;;;;;16.52;11.52;;;6.60;99.90;;;;;;5052942;28;20041;-53
2023/04/28 06:41:10;;;;;;;18.92;11.70;;;6.90;99.90;;;;;;5053291;28;20143;-50
2023/04/28 06:43:37;;;;;;;21.80;12.85;;;6.90;99.90;;;;;;5054057;28;20048;-48
2023/04/28 06:46:03;;;;;;;16.48;11.80;;;7.00;99.90;;;;;;5034619;28;20052;-53
2023/04/28 06:48:29;;;;;;;18.40;11.05;;;7.00;99.90;;;;;;5053022;28;20045;-53
2023/04/28 06:50:54;;;;;;;16.45;11.00;;;7.00;99.90;;;;;;5053453;28;20041;-51
2023/04/28 06:53:21;;;;;;;19.83;11.40;;;7.20;99.90;;;;;;5052760;28;20649;-53
2023/04/28 06:55:47;;;;;;;16.20;11.00;;;7.10;99.90;;;;;;5053801;28;20225;-53
2023/04/28 06:58:13;;;;;;;16.00;10.90;;;7.20;99.90;;;;;;5034751;28;20032;-53
2023/04/28 07:00:39;;;;;;;15.15;11.15;;;7.20;99.90;;;;;;5053065;28;20200;-52
2023/04/28 07:03:04;;;;;;;17.17;11.20;;;7.30;99.90;;;;;;5053528;28;20041;-53
2023/04/28 07:05:32;;;;;;;16.90;11.45;;;7.40;99.90;;;;;;5051713;28;20060;-50
2023/04/28 07:07:58;;;;;;;16.35;10.90;;;7.30;99.90;;;;;;5018142;28;20037;-52
2023/04/28 07:10:24;;;;;;;15.65;10.73;;;7.60;99.90;;;;;;5053574;28;20381;-52
2023/04/28 07:12:51;;;;;;;16.13;10.13;;;7.70;99.90;;;;;;5053034;28;20147;-50
2023/04/28 07:15:17;;;;;;;16.90;10.65;;;7.60;99.90;;;;;;5052688;28;20036;-51
2023/04/28 07:17:43;;;;;;;15.88;10.10;;;7.60;99.90;;;;;;5052197;28;20048;-49
2023/04/28 07:20:09;;;;;;;13.77;10.05;;;7.60;99.90;;;;;;5052612;28;20708;-52
2023/04/28 07:22:34;;;;;;;14.73;10.07;;;7.60;99.90;;;;;;5052473;28;20528;-52
2023/04/28 07:25:00;;;;;;;14.77;9.43;;;9.10;99.90;;;;;;5054650;28;20041;-52
2023/04/28 07:27:26;;;;;;;14.63;10.23;;;7.70;99.90;;;;;;5052754;28;20048;-54
2023/04/28 07:29:52;;;;;;;16.48;10.63;;;7.40;99.90;;;;;;5051193;28;20067;-52
2023/04/28 07:32:17;;;;;;;14.38;9.73;;;7.40;99.90;;;;;;5054917;28;20044;-49
2023/04/28 07:34:43;;;;;;;14.23;10.30;;;7.60;99.90;;;;;;5037815;28;20094;-51
2023/04/28 07:37:10;;;;;;;19.02;10.43;;;8.80;99.90;;;;;;5038188;28;20135;-52
2023/04/28 07:39:38;;;;;;;14.30;9.63;;;8.00;99.90;;;;;;5054790;28;20050;-52
2023/04/28 07:42:04;;;;;;;16.75;10.82;;;7.90;99.90;;;;;;5037043;28;20075;-53
2023/04/28 07:44:30;;;;;;;15.13;10.90;;;8.30;99.90;;;;;;5057119;28;21154;-51
2023/04/28 07:46:57;;;;;;;18.95;11.00;;;8.30;99.90;;;;;;5056908;28;20401;-53
2023/04/28 07:49:23;;;;;;;17.23;10.73;;;8.40;99.90;;;;;;5055800;28;20048;-52
2023/04/28 07:51:52;;;;;;;14.88;10.50;;;8.50;99.90;;;;;;5055795;28;20066;-50
2023/04/28 07:54:18;;;;;;;12.40;9.38;;;8.50;99.90;;;;;;5056736;28;20056;-50
2023/04/28 07:56:43;;;;;;;14.00;9.30;;;8.60;99.90;;;;;;5057217;28;20043;-53
2023/04/28 07:59:09;;;;;;;14.00;10.80;;;8.60;99.90;;;;;;5057375;28;20036;-52
2023/04/28 08:01:35;;;;;;;14.65;10.70;;;8.50;99.90;;;;;;5055677;28;20044;-51
2023/04/28 08:04:01;;;;;;;15.88;10.07;;;8.30;99.90;;;;;;5055267;28;20119;-52
2023/04/28 08:06:26;;;;;;;16.00;10.38;;;8.30;99.90;;;;;;5056092;28;20040;-50
2023/04/28 08:08:53;;;;;;;20.55;10.23;;;8.10;99.90;;;;;;5056290;28;20454;-51
2023/04/28 08:11:20;;;;;;;14.55;10.73;;;8.00;99.90;;;;;;5055977;28;20079;-53
2023/04/28 08:13:46;;;;;;;18.05;10.70;;;10.30;99.90;;;;;;5055223;28;20379;-51
2023/04/28 08:16:12;;;;;;;15.48;10.20;;;8.10;99.90;;;;;;5055622;28;20045;-50
2023/04/28 08:18:38;;;;;;;17.92;11.23;;;8.40;99.90;;;;;;5054958;28;20102;-52
2023/04/28 08:21:04;;;;;;;17.35;10.57;;;7.90;99.90;;;;;;5036473;28;21125;-48
2023/04/28 08:23:30;;;;;;;14.05;10.32;;;8.20;99.90;;;;;;5054661;28;20139;-52
2023/04/28 08:25:57;;;;;;;13.77;10.38;;;8.20;99.90;;;;;;5038814;28;20131;-49
2023/04/28 08:28:22;;;;;;;17.17;11.65;;;8.10;99.90;;;;;;5037457;28;20161;-49
2023/04/28 08:30:48;;;;;;;16.67;10.82;;;7.90;99.90;;;;;;5054915;28;20078;-53
2023/04/28 08:33:14;;;;;;;13.65;10.15;;;8.00;99.90;;;;;;5055737;28;20131;-53
2023/04/28 08:35:40;;;;;;;20.98;11.88;;;8.30;99.90;;;;;;5054172;28;20040;-55
2023/04/28 08:38:07;;;;;;;19.67;12.88;;;7.80;99.90;;;;;;5054466;28;20044;-55
2023/04/28 08:40:32;;;;;;;16.63;11.48;;;7.90;99.90;;;;;;5054354;28;20035;-53
2023/04/28 08:42:59;;;;;;;16.73;11.80;;;8.30;99.90;;;;;;5054153;28;20044;-55
2023/04/28 08:45:26;;;;;;;17.48;11.60;;;8.30;99.90;;;;;;5036934;28;20062;-53
2023/04/28 08:47:53;;;;;;;18.52;12.40;;;8.60;99.90;;;;;;5054616;28;20036;-55
2023/04/28 08:50:22;;;;;;;16.98;11.40;;;8.60;99.90;;;;;;5054215;28;20040;-53
2023/04/28 08:52:50;;;;;;;15.27;11.57;;;8.80;99.90;;;;;;5036422;28;20055;-55
2023/04/28 08:55:17;;;;;;;16.25;11.65;;;9.20;99.90;;;;;;5055432;28;20063;-54
2023/04/28 08:57:47;;;;;;;14.32;11.35;;;9.60;99.90;;;;;;5056312;28;20151;-58
2023/04/28 09:00:14;;;;;;;14.95;11.57;;;9.70;99.90;;;;;;5055191;28;20094;-54
2023/04/28 09:02:42;;;;;;;16.92;11.48;;;9.80;99.90;;;;;;5055220;28;20056;-55
2023/04/28 09:05:09;;;;;;;15.07;11.13;;;9.80;99.90;;;;;;5054021;28;20048;-54
2023/04/28 09:07:35;;;;;;;15.15;11.05;;;10.00;99.90;;;;;;5055351;28;20041;-56
2023/04/28 09:10:19;;;;;;;16.30;11.13;;;9.90;99.90;;;;;;5054886;28;20233;-55
2023/04/28 09:12:46;;;;;;;16.55;11.60;;;9.90;99.90;;;;;;5055325;28;20067;-53
2023/04/28 09:15:25;;;;;;;16.48;11.00;;;9.80;99.90;;;;;;5054942;28;20037;-54
2023/04/28 09:17:51;;;;;;;14.38;11.18;;;9.70;99.90;;;;;;5055212;28;20059;-55
2023/04/28 09:20:27;;;;;;;14.60;10.65;;;9.80;99.90;;;;;;5055288;28;20513;-55
2023/04/28 09:22:54;;;;;;;16.50;10.77;;;9.60;99.90;;;;;;5037280;28;20067;-55
2023/04/28 09:25:22;;;;;;;16.90;10.70;;;9.70;99.90;;;;;;5056277;28;20045;-55
2023/04/28 09:27:51;;;;;;;16.73;11.00;;;9.90;99.90;;;;;;5056345;28;20048;-53
2023/04/28 09:30:17;;;;;;;16.33;10.38;;;9.90;99.90;;;;;;5036344;28;20501;-54
2023/04/28 09:32:43;;;;;;;14.07;10.18;;;10.40;99.90;;;;;;5037437;28;20067;-55
2023/04/28 09:35:09;;;;;;;16.27;9.55;;;10.50;99.90;;;;;;5037643;28;20601;-55
2023/04/28 09:37:36;;;;;;;15.43;10.75;;;10.70;99.90;;;;;;5055394;28;20053;-54
2023/04/28 09:40:09;;;;;;;19.00;10.70;;;11.00;99.90;;;;;;5054936;28;20131;-55
2023/04/28 09:42:40;;;;;;;13.73;9.45;;;11.20;99.90;;;;;;5054473;28;20036;-52
2023/04/28 09:45:08;;;;;;;17.83;11.63;;;11.60;99.90;;;;;;5054216;28;20532;-54
2023/04/28 09:47:42;;;;;;;14.40;9.63;;;11.60;99.90;;;;;;5054042;28;20045;-53
2023/04/28 09:50:11;;;;;;;14.65;9.90;;;11.70;99.90;;;;;;5054525;28;20532;-54
2023/04/28 09:52:37;;;;;;;14.63;8.98;;;11.80;99.90;;;;;;5054606;28;20090;-54
2023/04/28 09:55:05;;;;;;;14.73;10.13;;;11.80;99.90;;;;;;5052759;28;20052;-54
2023/04/28 09:57:33;;;;;;;16.05;10.23;;;11.90;99.90;;;;;;5054954;28;20041;-52
2023/04/28 09:59:59;;;;;;;13.38;9.98;;;11.60;99.90;;;;;;5053646;28;20067;-52
2023/04/28 10:02:26;;;;;;;14.07;9.82;;;11.60;99.90;;;;;;5054892;28;20040;-52
2023/04/28 10:04:51;;;;;;;16.27;10.48;;;11.60;99.90;;;;;;5053986;28;20150;-53
2023/04/28 10:07:19;;;;;;;15.65;10.50;;;11.40;99.90;;;;;;5053567;28;20064;-54
2023/04/28 10:09:49;;;;;;;16.77;10.18;;;11.20;99.90;;;;;;5053665;28;20416;-49
2023/04/28 10:12:22;;;;;;;15.70;10.55;;;11.20;99.90;;;;;;5053255;28;20033;-54
2023/04/28 10:14:49;;;;;;;13.70;10.90;;;11.30;99.90;;;;;;5053075;28;20056;-55
2023/04/28 10:17:16;;;;;;;15.35;10.65;;;11.40;99.90;;;;;;5052613;28;20049;-55
2023/04/28 10:19:46;;;;;;;13.88;11.02;;;11.50;99.90;;;;;;5053891;28;20636;-56
2023/04/28 10:22:50;;;;;;;14.27;10.85;;;11.60;99.90;;;;;;5054263;28;20410;-56
2023/04/28 10:25:17;;;;;;;13.38;10.40;;;11.90;99.90;;;;;;5053498;28;20040;-56
2023/04/28 10:27:45;;;;;;;14.98;11.07;;;12.00;99.90;;;;;;5055145;28;20040;-56
2023/04/28 10:30:20;;;;;;;13.75;9.68;;;12.20;99.90;;;;;;5052465;28;20066;-55
2023/04/28 10:32:46;;;;;;;14.32;11.18;;;12.40;99.90;;;;;;5052989;28;20067;-56
2023/04/28 10:35:24;;;;;;;15.07;10.65;;;12.20;99.90;;;;;;5034111;28;20072;-56
2023/04/28 10:38:20;;;;;;;17.13;11.43;;;12.00;99.90;;;;;;5053428;28;20651;-55
2023/04/28 10:40:52;;;;;;;16.33;10.57;;;12.30;99.90;;;;;;5053348;28;20079;-53
2023/04/28 10:43:33;;;;;;;15.30;10.20;;;12.10;99.90;;;;;;5053730;28;21004;-53
2023/04/28 10:46:04;;;;;;;13.65;10.32;;;10.90;99.90;;;;;;5053096;28;20044;-55
2023/04/28 10:48:33;;;;;;;13.27;10.70;;;12.00;99.90;;;;;;5051470;28;20068;-55
2023/04/28 10:53:45;;;;;;;15.52;11.00;;;12.00;99.90;;;;;;5054200;28;20091;-55
2023/04/28 10:56:18;;;;;;;16.17;11.55;;;12.10;99.90;;;;;;5054161;28;20055;-55
2023/04/28 10:58:45;;;;;;;14.32;10.90;;;11.80;99.90;;;;;;5053121;28;20051;-55
2023/04/28 11:01:20;;;;;;;15.75;10.93;;;11.80;99.90;;;;;;5054128;28;20166;-55
2023/04/28 11:04:06;;;;;;;14.80;11.10;;;11.80;99.90;;;;;;5052505;28;20409;-55
2023/04/28 11:06:40;;;;;;;16.25;10.80;;;11.60;99.90;;;;;;5053962;28;20102;-55
2023/04/28 11:09:12;;;;;;;16.25;11.00;;;11.60;99.90;;;;;;5056595;28;20032;-55
2023/04/28 11:11:39;;;;;;;14.02;10.68;;;11.60;99.90;;;;;;5039633;28;20054;-55
2023/04/28 11:14:19;;;;;;;21.38;11.63;;;11.60;99.90;;;;;;5056957;28;20040;-55
2023/04/28 11:17:14;;;;;;;14.00;11.13;;;11.80;99.90;;;;;;5057079;28;20045;-56
2023/04/28 11:19:44;;;;;;;16.92;10.80;;;11.90;99.90;;;;;;5055705;28;20834;-56
2023/04/28 11:22:22;;;;;;;15.00;10.82;;;11.80;99.90;;;;;;5057357;28;20041;-55
2023/04/28 11:24:58;;;;;;;17.95;11.75;;;11.60;99.90;;;;;;5057198;28;20299;-55
2023/04/28 11:27:28;;;;;;;16.77;10.90;;;11.80;99.90;;;;;;5057486;28;20052;-55
2023/04/28 11:29:54;;;;;;;14.32;10.57;;;12.10;99.90;;;;;;5056212;28;20147;-55
2023/04/28 11:32:32;;;;;;;14.32;10.65;;;12.00;99.90;;;;;;5039358;28;20082;-55
2023/04/28 11:34:57;;;;;;;15.25;10.40;;;12.10;99.90;;;;;;5038046;28;20085;-55
2023/04/28 11:37:23;;;;;;;18.33;10.77;;;12.10;99.90;;;;;;5037408;28;20052;-55
2023/04/28 11:39:49;;;;;;;12.35;9.60;;;12.00;99.90;;;;;;5056371;28;20037;-55
2023/04/28 11:42:16;;;;;;;15.25;10.18;;;12.20;99.90;;;;;;5055360;28;20064;-54
2023/04/28 11:44:49;;;;;;;13.88;10.05;;;12.00;99.90;;;;;;5055844;28;20045;-54
2023/04/28 11:47:15;;;;;;;15.75;10.10;;;12.00;99.90;;;;;;5055847;28;20041;-55
2023/04/28 11:49:45;;;;;;;14.65;10.70;;;11.90;99.90;;;;;;5037817;28;20052;-54
2023/04/28 11:52:11;;;;;;;14.35;10.50;;;12.10;99.90;;;;;;5055366;28;20044;-54
2023/04/28 11:54:38;;;;;;;12.20;10.02;;;12.00;99.90;;;;;;5055355;28;20060;-54
2023/04/28 11:57:04;;;;;;;19.83;10.55;;;12.10;99.90;;;;;;5057268;28;20205;-53
2023/04/28 11:59:34;;;;;;;17.90;10.98;;;12.20;99.90;;;;;;5054840;28;20501;-54
2023/04/28 12:02:03;;;;;;;13.38;11.32;;;12.20;99.90;;;;;;5055430;28;20040;-54
2023/04/28 12:04:40;;;;;;;14.95;10.60;;;12.20;99.90;;;;;;5053266;28;20131;-53
2023/04/28 12:07:09;;;;;;;15.20;10.55;;;12.10;99.90;;;;;;5056354;28;20075;-54
2023/04/28 12:09:36;;;;;;;12.80;10.48;;;12.10;99.90;;;;;;5037687;28;20052;-54
2023/04/28 12:12:04;;;;;;;17.35;11.32;;;11.90;99.90;;;;;;5055513;28;20072;-51
2023/04/28 12:14:34;;;;;;;14.00;10.77;;;12.00;99.90;;;;;;5054627;28;20150;-54
2023/04/28 12:17:00;;;;;;;15.77;10.80;;;12.00;99.90;;;;;;5036427;28;20044;-54
2023/04/28 12:19:26;;;;;;;11.68;10.00;;;12.00;99.90;;;;;;5037917;28;20369;-55
2023/04/28 12:22:06;;;;;;;14.75;10.30;;;11.90;99.90;;;;;;5054913;28;20047;-54
2023/04/28 12:24:34;;;;;;;16.20;11.43;;;11.70;99.90;;;;;;5054801;28;20044;-54
2023/04/28 12:27:23;;;;;;;16.63;11.15;;;11.80;99.90;;;;;;5040435;28;20533;-53
2023/04/28 12:29:50;;;;;;;13.90;10.20;;;11.90;99.90;;;;;;5056454;28;20075;-53
2023/04/28 12:32:17;;;;;;;13.30;10.68;;;12.00;99.90;;;;;;5037974;28;20213;-52
2023/04/28 12:34:45;;;;;;;15.43;11.32;;;11.80;99.90;;;;;;5054375;28;20138;-52
2023/04/28 12:37:12;;;;;;;14.80;11.45;;;12.10;99.90;;;;;;5056302;28;20044;-53
2023/04/28 12:39:39;;;;;;;15.07;11.90;;;12.00;99.90;;;;;;5055198;28;20059;-50
2023/04/28 12:42:06;;;;;;;14.20;11.85;;;12.30;99.90;;;;;;5054713;28;20149;-54
2023/04/28 12:44:36;;;;;;;16.95;10.32;;;12.70;99.90;;;;;;5055665;28;20058;-54
2023/04/28 12:47:09;;;;;;;13.45;9.57;;;12.40;99.90;;;;;;5054656;28;20458;-53
2023/04/28 12:49:36;;;;;;;13.80;9.77;;;13.00;99.90;;;;;;5056098;28;20048;-53
2023/04/28 12:52:05;;;;;;;14.05;9.27;;;13.20;99.90;;;;;;5054763;28;20493;-54
2023/04/28 12:54:31;;;;;;;11.68;8.65;;;13.50;99.90;;;;;;5037216;28;20052;-54
2023/04/28 12:56:57;;;;;;;13.45;10.00;;;13.50;99.90;;;;;;5056474;28;20044;-54
2023/04/28 12:59:23;;;;;;;14.82;10.00;;;13.70;99.90;;;;;;5055630;28;20818;-53
2023/04/28 13:01:50;;;;;;;14.38;9.23;;;13.70;99.90;;;;;;5035866;28;20064;-52
2023/04/28 13:04:17;;;;;;;13.52;9.15;;;13.80;99.90;;;;;;5053287;28;20044;-54
2023/04/28 13:06:43;;;;;;;15.80;9.52;;;13.60;99.90;;;;;;5054449;28;20936;-53
2023/04/28 13:09:14;;;;;;;12.95;10.30;;;13.40;99.90;;;;;;5054250;28;20044;-52